createdAt,value
2019-01-24T00:01:51.378Z,83.10
2019-01-24T00:11:54.992Z,97.50
2019-01-24T00:21:59.047Z,79.13
2019-01-24T00:32:02.698Z,62.93
2019-01-24T00:42:06.354Z,75.40
2019-01-24T00:52:09.983Z,75.20
2019-01-24T01:02:14.344Z,60.00
2019-01-24T01:12:17.973Z,79.40
2019-01-24T01:22:21.606Z,64.17
2019-01-24T01:32:25.231Z,61.93
2019-01-24T01:42:29.087Z,55.53
2019-01-24T01:52:32.666Z,51.53
2019-01-24T02:02:36.275Z,46.90
2019-01-24T02:12:39.897Z,58.77
2019-01-24T02:22:43.553Z,53.07
2019-01-24T02:32:47.957Z,51.43
2019-01-24T02:42:51.558Z,54.13
2019-01-24T02:52:55.171Z,46.43
2019-01-24T03:02:58.810Z,50.20
2019-01-24T03:13:02.427Z,56.73
2019-01-24T03:23:06.048Z,46.47
2019-01-24T03:33:09.633Z,48.70
2019-01-24T03:43:15.550Z,42.67
2019-01-24T03:53:19.132Z,55.27
2019-01-24T04:03:22.732Z,40.13
2019-01-24T04:13:27.366Z,46.87
2019-01-24T04:23:31.559Z,37.70
2019-01-24T04:33:35.195Z,30.30
2019-01-24T04:43:38.826Z,34.10
2019-01-24T04:53:42.427Z,22.87
2019-01-24T05:03:46.023Z,31.07
2019-01-24T05:13:49.654Z,31.73
2019-01-24T05:23:53.267Z,28.80
2019-01-24T05:33:56.863Z,23.37
2019-01-24T05:44:00.452Z,19.93
2019-01-24T05:54:04.052Z,18.73
2019-01-24T06:04:09.743Z,22.17
2019-01-24T06:14:14.415Z,22.70
2019-01-24T06:24:20.086Z,24.73
2019-01-24T06:34:23.683Z,28.90
2019-01-24T06:44:27.274Z,22.73
2019-01-24T06:54:30.917Z,27.47
2019-01-24T07:04:34.514Z,36.27
2019-01-24T07:14:38.113Z,32.03
2019-01-24T07:24:41.836Z,23.57
2019-01-24T07:34:45.419Z,19.20
2019-01-24T07:44:49.009Z,18.13
2019-01-24T07:54:52.618Z,31.83
2019-01-24T08:04:56.207Z,26.33
2019-01-24T08:14:59.810Z,25.33
2019-01-24T08:25:03.444Z,27.33
2019-01-24T08:35:07.192Z,35.93
2019-01-24T08:45:11.205Z,32.60
2019-01-24T08:55:21.943Z,30.47
2019-01-24T09:05:25.534Z,27.10
2019-01-24T09:15:29.314Z,35.30
2019-01-24T09:25:33.406Z,34.53
2019-01-24T09:35:37.018Z,31.57
2019-01-24T09:45:40.631Z,30.97
2019-01-24T09:55:44.237Z,32.63
2019-01-24T10:05:47.835Z,34.47
2019-01-24T10:15:51.438Z,35.93
2019-01-24T10:25:55.039Z,34.43
2019-01-24T10:35:58.662Z,28.80
2019-01-24T10:46:02.256Z,25.77
2019-01-24T10:56:05.916Z,31.23
2019-01-24T11:06:09.502Z,29.87
2019-01-24T11:16:13.099Z,35.37
2019-01-24T11:26:16.694Z,38.33
2019-01-24T11:36:20.280Z,31.40
2019-01-24T11:46:23.863Z,32.67
2019-01-24T11:56:27.469Z,20.60
2019-01-24T12:06:31.070Z,31.43
2019-01-24T12:16:34.667Z,26.27
2019-01-24T12:26:38.258Z,34.47
2019-01-24T12:36:41.849Z,24.60
2019-01-24T12:46:45.422Z,21.07
2019-01-24T12:56:49.003Z,21.63
2019-01-24T13:06:52.612Z,22.47
2019-01-24T13:16:56.190Z,23.13
2019-01-24T13:26:59.777Z,23.70
2019-01-24T13:37:03.364Z,24.23
2019-01-24T13:47:06.959Z,28.30
2019-01-24T13:57:10.537Z,28.07
2019-01-24T14:07:14.180Z,26.80
2019-01-24T14:17:17.782Z,28.43
2019-01-24T14:27:21.811Z,22.77
2019-01-24T14:37:26.567Z,33.10
2019-01-24T14:47:30.158Z,22.97
2019-01-24T14:57:33.857Z,23.27
2019-01-24T15:07:37.591Z,25.60
2019-01-24T15:17:41.178Z,27.60
2019-01-24T15:27:44.766Z,21.23
2019-01-24T15:37:54.386Z,17.67
2019-01-24T15:47:53.774Z,21.73
2019-01-24T15:57:57.418Z,22.10
2019-01-24T16:08:01.786Z,25.80
2019-01-24T16:18:08.278Z,17.63
2019-01-24T16:28:12.873Z,21.60
2019-01-24T16:38:16.458Z,22.83
2019-01-24T16:48:20.046Z,16.87
2019-01-24T16:58:23.641Z,22.53
2019-01-24T17:08:27.242Z,16.20
2019-01-24T17:18:30.873Z,25.77
2019-01-24T17:28:40.530Z,29.47
2019-01-24T17:38:44.114Z,22.00
2019-01-24T17:48:48.758Z,22.80
2019-01-24T17:58:53.426Z,21.70
2019-01-24T18:08:57.017Z,26.57
2019-01-24T18:19:00.630Z,25.73
2019-01-24T18:29:04.262Z,24.73
2019-01-24T18:39:10.158Z,20.77
2019-01-24T18:49:13.750Z,24.37
2019-01-24T18:59:19.445Z,27.53
2019-01-24T19:09:25.130Z,19.67
2019-01-24T19:19:28.757Z,12.73
2019-01-24T19:29:32.339Z,8.83
2019-01-24T19:39:35.951Z,13.40
2019-01-24T19:49:41.619Z,24.17
2019-01-24T19:59:45.227Z,25.53
2019-01-24T20:09:48.814Z,15.13
2019-01-24T20:19:52.661Z,14.37
2019-01-24T20:29:56.470Z,23.90
2019-01-24T20:40:00.050Z,15.93
2019-01-24T20:50:03.687Z,13.17
2019-01-24T21:00:13.726Z,16.47
2019-01-24T21:10:19.428Z,15.03
2019-01-24T21:20:24.806Z,7.17
2019-01-24T21:30:35.591Z,15.33
2019-01-24T21:40:39.202Z,17.40
2019-01-24T21:50:42.870Z,14.43
2019-01-24T22:00:46.542Z,10.83
2019-01-24T22:10:50.143Z,21.73
2019-01-24T22:20:55.748Z,30.27
2019-01-24T22:31:00.335Z,20.77
2019-01-24T22:41:03.926Z,13.30
2019-01-24T22:51:07.550Z,11.13
2019-01-24T23:01:32.466Z,11.77
2019-01-24T23:11:36.152Z,8.83
2019-01-24T23:21:39.726Z,7.73
2019-01-24T23:31:43.333Z,10.33
2019-01-24T23:41:46.925Z,15.00
2019-01-24T23:51:50.502Z,11.87
